createdAt,value
2018-03-29T00:01:41.682Z,9.40
2018-03-29T00:04:11.230Z,9.30
2018-03-29T00:06:40.012Z,9.30
2018-03-29T00:09:08.425Z,9.30
2018-03-29T00:11:38.477Z,9.20
2018-03-29T00:14:07.972Z,9.20
2018-03-29T00:16:37.132Z,9.20
2018-03-29T00:19:05.498Z,9.10
2018-03-29T00:21:33.913Z,9.10
2018-03-29T00:24:03.054Z,9.10
2018-03-29T00:26:31.439Z,9.00
2018-03-29T00:28:59.830Z,9.00
2018-03-29T00:31:28.199Z,9.00
2018-03-29T00:33:56.585Z,8.90
2018-03-29T00:36:24.944Z,8.90
2018-03-29T00:38:53.354Z,8.80
2018-03-29T00:41:21.724Z,8.80
2018-03-29T00:43:50.162Z,8.80
2018-03-29T00:46:18.556Z,8.80
2018-03-29T00:48:46.927Z,8.80
2018-03-29T00:51:15.321Z,8.80
2018-03-29T00:53:45.361Z,8.80
2018-03-29T00:56:13.743Z,8.70
2018-03-29T00:58:42.137Z,8.70
2018-03-29T01:01:10.549Z,8.70
2018-03-29T01:03:39.160Z,8.60
2018-03-29T01:06:07.533Z,8.60
2018-03-29T01:08:36.684Z,8.60
2018-03-29T01:11:05.094Z,8.50
2018-03-29T01:13:33.464Z,8.50
2018-03-29T01:16:01.979Z,8.50
2018-03-29T01:18:30.354Z,8.50
2018-03-29T01:20:58.733Z,8.40
2018-03-29T01:23:27.126Z,8.40
2018-03-29T01:25:55.494Z,8.30
2018-03-29T01:28:24.177Z,8.30
2018-03-29T01:30:52.556Z,8.30
2018-03-29T01:33:20.935Z,8.20
2018-03-29T01:35:49.723Z,8.20
2018-03-29T01:38:18.110Z,8.10
2018-03-29T01:40:46.789Z,8.10
2018-03-29T01:43:15.197Z,8.00
2018-03-29T01:45:43.570Z,8.00
2018-03-29T01:48:11.954Z,8.00
2018-03-29T01:50:40.329Z,8.00
2018-03-29T01:53:08.985Z,7.90
2018-03-29T01:55:37.350Z,7.90
2018-03-29T01:58:05.717Z,7.90
2018-03-29T02:00:34.140Z,8.00
2018-03-29T02:03:02.522Z,8.00
2018-03-29T02:05:31.130Z,8.00
2018-03-29T02:08:00.261Z,7.90
2018-03-29T02:10:28.637Z,7.90
2018-03-29T02:12:57.025Z,7.80
2018-03-29T02:15:25.395Z,7.80
2018-03-29T02:17:53.802Z,7.80
2018-03-29T02:20:22.181Z,7.90
2018-03-29T02:22:51.150Z,7.90
2018-03-29T02:25:20.068Z,7.80
2018-03-29T02:27:50.036Z,7.70
2018-03-29T02:30:20.019Z,7.70
2018-03-29T02:32:48.915Z,7.80
2018-03-29T02:35:18.081Z,7.80
2018-03-29T02:37:46.903Z,7.80
2018-03-29T02:40:15.822Z,7.70
2018-03-29T02:42:44.769Z,7.70
2018-03-29T02:45:14.461Z,7.70
2018-03-29T02:47:43.347Z,7.70
2018-03-29T02:50:11.716Z,7.70
2018-03-29T02:52:40.143Z,7.60
2018-03-29T02:55:08.534Z,7.60
2018-03-29T02:57:37.675Z,7.60
2018-03-29T03:00:06.100Z,7.60
2018-03-29T03:02:36.767Z,7.60
2018-03-29T03:05:05.191Z,7.50
2018-03-29T03:07:33.573Z,7.50
2018-03-29T03:10:02.431Z,7.60
2018-03-29T03:12:30.805Z,7.70
2018-03-29T03:14:59.170Z,7.80
2018-03-29T03:17:27.563Z,7.90
2018-03-29T03:19:55.953Z,7.90
2018-03-29T03:22:24.392Z,7.90
2018-03-29T03:24:52.762Z,7.90
2018-03-29T03:27:22.207Z,7.90
2018-03-29T03:29:50.574Z,7.90
2018-03-29T03:32:18.987Z,7.90
2018-03-29T03:34:47.385Z,7.90
2018-03-29T03:37:15.753Z,7.90
2018-03-29T03:39:44.149Z,7.80
2018-03-29T03:42:13.295Z,7.70
2018-03-29T03:44:41.985Z,7.70
2018-03-29T03:47:10.350Z,7.70
2018-03-29T03:49:38.721Z,7.70
2018-03-29T03:52:07.105Z,7.60
2018-03-29T03:54:35.470Z,7.50
2018-03-29T03:57:03.868Z,7.40
2018-03-29T03:59:32.233Z,7.30
2018-03-29T04:02:00.726Z,7.30
2018-03-29T04:04:29.089Z,7.30
2018-03-29T04:06:57.457Z,7.20
2018-03-29T04:09:25.859Z,7.30
2018-03-29T04:11:54.353Z,7.20
2018-03-29T04:14:22.760Z,7.10
2018-03-29T04:16:51.885Z,7.10
2018-03-29T04:19:21.235Z,7.10
2018-03-29T04:21:49.598Z,7.10
2018-03-29T04:24:17.962Z,7.10
2018-03-29T04:26:46.360Z,7.00
2018-03-29T04:29:14.773Z,7.00
2018-03-29T04:31:43.173Z,7.00
2018-03-29T04:34:12.314Z,6.80
2018-03-29T04:36:40.895Z,6.80
2018-03-29T04:39:09.263Z,6.70
2018-03-29T04:41:37.635Z,6.70
2018-03-29T04:44:06.035Z,6.70
2018-03-29T04:46:34.399Z,6.60
2018-03-29T04:49:02.804Z,6.70
2018-03-29T04:51:31.181Z,6.60
2018-03-29T04:54:00.071Z,6.60
2018-03-29T04:56:28.461Z,6.60
2018-03-29T04:58:56.828Z,6.60
2018-03-29T05:01:25.217Z,6.60
2018-03-29T05:03:53.590Z,6.60
2018-03-29T05:06:21.996Z,6.60
2018-03-29T05:08:50.369Z,6.60
2018-03-29T05:11:19.114Z,6.50
2018-03-29T05:13:47.485Z,6.50
2018-03-29T05:16:15.883Z,6.50
2018-03-29T05:18:44.343Z,6.50
2018-03-29T05:21:12.720Z,6.50
2018-03-29T05:23:41.121Z,6.50
2018-03-29T05:26:09.768Z,6.50
2018-03-29T05:28:38.374Z,6.50
2018-03-29T05:31:06.738Z,6.60
2018-03-29T05:33:35.133Z,6.50
2018-03-29T05:36:03.528Z,6.50
2018-03-29T05:38:31.894Z,6.50
2018-03-29T05:41:00.305Z,6.50
2018-03-29T05:43:28.686Z,6.50
2018-03-29T05:45:57.547Z,6.50
2018-03-29T05:48:25.922Z,6.50
2018-03-29T05:50:54.349Z,6.50
2018-03-29T05:53:23.511Z,6.50
2018-03-29T05:55:51.882Z,6.50
2018-03-29T05:58:20.278Z,6.40
2018-03-29T06:00:48.662Z,6.40
2018-03-29T06:03:17.070Z,6.40
2018-03-29T06:05:46.206Z,6.50
2018-03-29T06:08:14.579Z,6.50
2018-03-29T06:10:42.963Z,6.60
2018-03-29T06:13:11.333Z,6.60
2018-03-29T06:15:39.728Z,6.80
2018-03-29T06:18:08.099Z,6.90
2018-03-29T06:20:36.694Z,6.90
2018-03-29T06:23:05.061Z,6.90
2018-03-29T06:25:33.462Z,6.80
2018-03-29T06:28:01.854Z,6.80
2018-03-29T06:30:30.229Z,6.90
2018-03-29T06:32:58.617Z,7.00
2018-03-29T06:35:33.145Z,7.10
2018-03-29T06:38:01.961Z,7.30
2018-03-29T06:40:30.335Z,7.40
2018-03-29T06:42:58.706Z,7.60
2018-03-29T06:45:27.107Z,7.70
2018-03-29T06:47:55.519Z,7.90
2018-03-29T06:50:23.919Z,8.00
2018-03-29T06:52:53.057Z,8.20
2018-03-29T06:55:21.754Z,8.20
2018-03-29T06:57:50.122Z,8.20
2018-03-29T07:00:18.485Z,8.20
2018-03-29T07:02:46.890Z,8.10
2018-03-29T07:05:15.271Z,8.00
2018-03-29T07:07:43.671Z,8.10
2018-03-29T07:10:12.106Z,8.20
2018-03-29T07:12:40.526Z,8.30
2018-03-29T07:15:09.478Z,8.40
2018-03-29T07:17:37.854Z,8.50
2018-03-29T07:20:06.262Z,8.50
2018-03-29T07:22:34.638Z,8.40
2018-03-29T07:25:03.031Z,8.30
2018-03-29T07:27:31.401Z,8.20
2018-03-29T07:29:59.788Z,8.10
2018-03-29T07:32:28.165Z,8.10
2018-03-29T07:34:56.540Z,8.10
2018-03-29T07:37:24.929Z,8.10
2018-03-29T07:39:53.305Z,8.10
2018-03-29T07:42:21.702Z,8.30
2018-03-29T07:44:50.065Z,8.40
2018-03-29T07:47:18.625Z,8.40
2018-03-29T07:49:46.997Z,8.50
2018-03-29T07:52:15.360Z,8.70
2018-03-29T07:54:43.762Z,8.80
2018-03-29T07:57:12.127Z,9.00
2018-03-29T07:59:40.519Z,9.20
2018-03-29T08:02:08.894Z,9.40
2018-03-29T08:04:37.678Z,9.50
2018-03-29T08:07:06.045Z,9.70
2018-03-29T08:09:34.422Z,9.80
2018-03-29T08:12:02.824Z,9.70
2018-03-29T08:14:31.194Z,9.60
2018-03-29T08:16:59.593Z,9.60
2018-03-29T08:19:27.985Z,9.80
2018-03-29T08:21:56.421Z,10.30
2018-03-29T08:24:24.799Z,10.80
2018-03-29T08:26:53.182Z,11.30
2018-03-29T08:29:21.593Z,11.80
2018-03-29T08:31:49.966Z,12.30
2018-03-29T08:34:18.363Z,12.80
2018-03-29T08:36:46.741Z,12.90
2018-03-29T08:39:15.394Z,13.10
2018-03-29T08:41:43.780Z,13.20
2018-03-29T08:44:12.162Z,12.70
2018-03-29T08:46:40.630Z,12.40
2018-03-29T08:49:09.015Z,12.10
2018-03-29T08:51:37.423Z,11.80
2018-03-29T08:54:05.803Z,11.90
2018-03-29T08:56:34.551Z,12.10
2018-03-29T08:59:03.047Z,12.40
2018-03-29T09:01:31.422Z,12.50
2018-03-29T09:03:59.819Z,12.40
2018-03-29T09:06:28.190Z,12.40
2018-03-29T09:08:56.574Z,12.70
2018-03-29T09:11:24.947Z,12.90
2018-03-29T09:13:53.384Z,12.80
2018-03-29T09:16:21.758Z,12.70
2018-03-29T09:18:50.130Z,12.70
2018-03-29T09:21:18.555Z,12.50
2018-03-29T09:23:46.934Z,12.10
2018-03-29T09:26:15.332Z,11.80
2018-03-29T09:28:43.702Z,11.80
2018-03-29T09:31:12.491Z,11.90
2018-03-29T09:33:40.866Z,12.00
2018-03-29T09:36:09.241Z,12.20
2018-03-29T09:38:37.646Z,12.30
2018-03-29T09:41:06.798Z,12.40
2018-03-29T09:43:35.198Z,12.40
2018-03-29T09:46:03.583Z,12.40
2018-03-29T09:48:32.182Z,12.40
2018-03-29T09:51:01.336Z,12.20
2018-03-29T09:53:29.771Z,12.10
2018-03-29T09:55:58.962Z,12.00
2018-03-29T09:58:28.111Z,12.00
2018-03-29T10:01:02.184Z,12.00
2018-03-29T10:03:30.571Z,11.90
2018-03-29T10:06:04.867Z,11.90
2018-03-29T10:08:34.016Z,11.90
2018-03-29T10:11:02.714Z,11.90
2018-03-29T10:13:31.092Z,11.70
2018-03-29T10:15:59.470Z,11.60
2018-03-29T10:18:27.857Z,11.60
2018-03-29T10:20:56.238Z,11.70
2018-03-29T10:23:24.642Z,11.80
2018-03-29T10:25:53.795Z,11.90
2018-03-29T10:28:22.297Z,11.80
2018-03-29T10:30:50.678Z,12.00
2018-03-29T10:33:19.062Z,11.90
2018-03-29T10:35:47.571Z,12.10
2018-03-29T10:38:15.922Z,12.40
2018-03-29T10:40:45.092Z,13.70
2018-03-29T10:43:13.475Z,13.70
2018-03-29T10:45:42.276Z,14.30
2018-03-29T10:48:10.663Z,14.80
2018-03-29T10:50:39.030Z,15.20
2018-03-29T10:53:07.447Z,15.00
2018-03-29T10:55:35.847Z,14.80
2018-03-29T10:58:04.278Z,14.80
2018-03-29T11:00:32.722Z,14.80
2018-03-29T11:03:01.403Z,14.80
2018-03-29T11:05:29.787Z,15.00
2018-03-29T11:07:58.195Z,15.70
2018-03-29T11:10:26.667Z,16.30
2018-03-29T11:12:55.048Z,17.40
2018-03-29T11:15:23.454Z,19.00
2018-03-29T11:17:52.647Z,20.30
2018-03-29T11:20:22.000Z,20.50
2018-03-29T11:22:50.378Z,20.50
2018-03-29T11:25:18.865Z,20.30
2018-03-29T11:27:47.279Z,19.80
2018-03-29T11:30:15.653Z,18.80
2018-03-29T11:32:44.046Z,17.90
2018-03-29T11:35:13.222Z,17.60
2018-03-29T11:37:41.982Z,17.60
2018-03-29T11:40:10.367Z,17.50
2018-03-29T11:42:38.743Z,18.00
2018-03-29T11:45:07.153Z,18.70
2018-03-29T11:47:35.533Z,19.30
2018-03-29T11:50:03.951Z,19.30
2018-03-29T11:52:32.326Z,19.50
2018-03-29T11:55:01.038Z,20.30
2018-03-29T11:57:29.417Z,21.00
2018-03-29T11:59:57.930Z,21.40
2018-03-29T12:02:26.350Z,20.90
2018-03-29T12:04:54.730Z,20.50
2018-03-29T12:07:23.143Z,19.80
2018-03-29T12:09:51.526Z,19.20
2018-03-29T12:12:20.088Z,18.80
2018-03-29T12:14:48.578Z,18.40
2018-03-29T12:17:16.967Z,18.40
2018-03-29T12:19:46.255Z,17.30
2018-03-29T12:22:14.643Z,17.30
2018-03-29T12:24:43.051Z,17.00
2018-03-29T12:27:11.426Z,16.60
2018-03-29T12:29:39.967Z,16.50
2018-03-29T12:32:08.349Z,17.10
2018-03-29T12:34:36.761Z,17.50
2018-03-29T12:37:05.195Z,17.50
2018-03-29T12:39:33.588Z,17.30
2018-03-29T12:42:02.010Z,17.10
2018-03-29T12:44:31.154Z,16.80
2018-03-29T12:46:59.629Z,16.80
2018-03-29T12:49:28.006Z,16.70
2018-03-29T12:51:56.394Z,16.40
2018-03-29T12:54:24.883Z,16.30
2018-03-29T13:00:03.765Z,15.60
2018-03-29T13:02:32.145Z,15.50
2018-03-29T13:05:00.633Z,15.50
2018-03-29T13:07:29.780Z,15.40
2018-03-29T13:09:58.519Z,15.40
2018-03-29T13:12:26.914Z,15.30
2018-03-29T13:14:55.295Z,15.40
2018-03-29T13:17:23.695Z,15.30
2018-03-29T13:19:52.070Z,15.20
2018-03-29T13:22:20.478Z,15.00
2018-03-29T13:24:48.870Z,14.90
2018-03-29T13:27:17.415Z,14.70
2018-03-29T13:29:45.797Z,15.00
2018-03-29T13:32:14.185Z,15.40
2018-03-29T13:34:42.586Z,15.70
2018-03-29T13:37:10.962Z,16.30
2018-03-29T13:39:39.372Z,16.10
2018-03-29T13:42:08.520Z,15.70
2018-03-29T13:44:36.939Z,15.60
2018-03-29T13:47:06.086Z,14.90
2018-03-29T13:49:34.497Z,14.80
2018-03-29T13:52:02.902Z,14.60
2018-03-29T13:54:32.076Z,14.40
2018-03-29T13:57:00.493Z,14.30
2018-03-29T13:59:28.870Z,14.30
2018-03-29T14:01:57.482Z,14.20
2018-03-29T14:04:25.867Z,14.10
2018-03-29T14:06:54.251Z,14.20
2018-03-29T14:09:22.697Z,14.20
2018-03-29T14:11:51.074Z,14.10
2018-03-29T14:14:19.478Z,14.10
2018-03-29T14:16:47.860Z,14.00
2018-03-29T14:19:16.542Z,14.30
2018-03-29T14:21:44.924Z,14.50
2018-03-29T14:24:13.302Z,14.50
2018-03-29T14:26:41.816Z,14.50
2018-03-29T14:29:10.194Z,14.60
2018-03-29T14:31:38.610Z,14.60
2018-03-29T14:34:06.986Z,14.40
2018-03-29T14:36:35.701Z,14.30
2018-03-29T14:39:04.114Z,14.30
2018-03-29T14:41:33.267Z,14.30
2018-03-29T14:44:02.499Z,14.20
2018-03-29T14:46:30.896Z,14.10
2018-03-29T14:48:59.298Z,14.10
2018-03-29T14:51:27.676Z,13.90
2018-03-29T14:53:56.163Z,13.70
2018-03-29T14:56:24.559Z,13.40
2018-03-29T14:58:52.936Z,13.20
2018-03-29T15:01:21.329Z,13.00
2018-03-29T15:03:49.719Z,12.90
2018-03-29T15:06:18.152Z,12.90
2018-03-29T15:08:46.537Z,12.90
2018-03-29T15:11:14.911Z,12.90
2018-03-29T15:13:43.337Z,12.70
2018-03-29T15:16:11.726Z,12.70
2018-03-29T15:18:40.127Z,12.60
2018-03-29T15:21:09.275Z,12.30
2018-03-29T15:23:37.681Z,12.30
2018-03-29T15:26:06.055Z,12.10
2018-03-29T15:28:34.484Z,12.00
2018-03-29T15:31:03.631Z,11.60
2018-03-29T15:33:32.006Z,11.60
2018-03-29T15:36:00.393Z,11.50
2018-03-29T15:38:28.775Z,11.40
2018-03-29T15:40:57.324Z,11.20
2018-03-29T15:43:25.710Z,11.00
2018-03-29T15:45:54.098Z,10.80
2018-03-29T15:48:22.599Z,10.70
2018-03-29T15:50:50.993Z,10.60
2018-03-29T15:53:20.170Z,10.70
2018-03-29T15:55:48.547Z,10.60
2018-03-29T15:58:17.210Z,10.70
2018-03-29T16:00:45.587Z,10.60
2018-03-29T16:03:13.962Z,10.60
2018-03-29T16:05:42.371Z,10.60
2018-03-29T16:08:10.750Z,10.60
2018-03-29T16:10:39.132Z,10.70
2018-03-29T16:13:07.503Z,10.90
2018-03-29T16:15:36.177Z,10.90
2018-03-29T16:18:04.569Z,10.90
2018-03-29T16:20:32.946Z,10.90
2018-03-29T16:23:01.353Z,10.90
2018-03-29T16:25:30.498Z,10.80
2018-03-29T16:27:58.973Z,10.80
2018-03-29T16:30:27.353Z,10.80
2018-03-29T16:32:55.750Z,10.90
2018-03-29T16:35:24.143Z,10.90
2018-03-29T16:37:52.547Z,10.90
2018-03-29T16:40:21.694Z,10.90
2018-03-29T16:42:50.374Z,10.80
2018-03-29T16:45:18.759Z,10.90
2018-03-29T16:47:47.133Z,10.90
2018-03-29T16:50:15.539Z,10.90
2018-03-29T16:52:43.920Z,10.90
2018-03-29T16:55:12.325Z,11.00
2018-03-29T16:57:40.705Z,10.90
2018-03-29T17:00:09.119Z,10.90
2018-03-29T17:02:37.494Z,10.90
2018-03-29T17:05:05.869Z,10.80
2018-03-29T17:07:34.278Z,10.70
2018-03-29T17:10:02.664Z,10.70
2018-03-29T17:12:31.082Z,10.60
2018-03-29T17:14:59.463Z,10.60
2018-03-29T17:17:28.100Z,10.70
2018-03-29T17:19:56.484Z,10.60
2018-03-29T17:22:24.935Z,10.20
2018-03-29T17:24:53.341Z,10.00
2018-03-29T17:27:21.711Z,9.80
2018-03-29T17:29:50.102Z,9.50
2018-03-29T17:32:18.592Z,9.30
2018-03-29T17:34:47.162Z,9.20
2018-03-29T17:37:16.298Z,8.90
2018-03-29T17:39:44.682Z,8.90
2018-03-29T17:42:13.069Z,8.80
2018-03-29T17:44:41.451Z,8.70
2018-03-29T17:47:09.930Z,8.70
2018-03-29T17:49:38.353Z,8.70
2018-03-29T17:52:07.034Z,8.70
2018-03-29T17:54:35.311Z,8.60
2018-03-29T17:57:04.466Z,8.50
2018-03-29T17:59:32.887Z,8.50
2018-03-29T18:02:01.290Z,8.50
2018-03-29T18:04:30.462Z,8.50
2018-03-29T18:06:58.969Z,8.50
2018-03-29T18:09:28.326Z,8.30
2018-03-29T18:11:56.705Z,8.30
2018-03-29T18:14:25.085Z,8.30
2018-03-29T18:16:54.776Z,8.30
2018-03-29T18:19:23.713Z,8.20
2018-03-29T18:21:52.103Z,8.10
2018-03-29T18:24:21.238Z,8.10
2018-03-29T18:26:50.570Z,8.10
2018-03-29T18:29:22.142Z,7.90
2018-03-29T18:31:51.340Z,7.80
2018-03-29T18:34:21.381Z,7.80
2018-03-29T18:36:49.755Z,7.80
2018-03-29T18:39:20.153Z,7.70
2018-03-29T18:41:49.053Z,7.70
2018-03-29T18:44:18.576Z,7.70
2018-03-29T18:46:48.342Z,7.70
2018-03-29T18:49:18.687Z,7.60
2018-03-29T18:51:47.098Z,7.60
2018-03-29T18:54:15.503Z,7.60
2018-03-29T18:56:43.904Z,7.50
2018-03-29T18:59:12.369Z,7.50
2018-03-29T19:01:41.276Z,7.40
2018-03-29T19:04:10.295Z,7.40
2018-03-29T19:06:40.441Z,7.30
2018-03-29T19:09:08.805Z,7.30
2018-03-29T19:11:39.156Z,7.30
2018-03-29T19:14:07.558Z,7.30
2018-03-29T19:16:35.933Z,7.30
2018-03-29T19:19:04.350Z,7.30
2018-03-29T19:21:32.718Z,7.30
2018-03-29T19:24:01.386Z,7.20
2018-03-29T19:26:31.824Z,7.30
2018-03-29T19:29:01.030Z,7.20
2018-03-29T19:31:30.329Z,7.20
2018-03-29T19:33:58.889Z,7.20
2018-03-29T19:36:29.438Z,7.10
2018-03-29T19:38:58.992Z,7.10
2018-03-29T19:41:28.298Z,7.00
2018-03-29T19:43:58.119Z,6.90
2018-03-29T19:46:27.831Z,6.90
2018-03-29T19:48:56.291Z,6.90
2018-03-29T19:51:24.701Z,6.90
2018-03-29T19:53:53.679Z,6.90
2018-03-29T19:56:22.485Z,6.80
2018-03-29T19:58:51.069Z,6.80
2018-03-29T20:01:20.317Z,7.00
2018-03-29T20:03:50.383Z,7.00
2018-03-29T20:06:19.094Z,7.00
2018-03-29T20:08:48.125Z,7.10
2018-03-29T20:11:17.015Z,7.10
2018-03-29T20:13:45.439Z,7.20
2018-03-29T20:16:15.821Z,7.30
2018-03-29T20:18:45.193Z,7.20
2018-03-29T20:21:15.896Z,7.10
2018-03-29T20:23:45.564Z,7.10
2018-03-29T20:26:15.550Z,7.10
2018-03-29T20:28:45.624Z,7.10
2018-03-29T20:31:14.208Z,7.10
2018-03-29T20:33:43.170Z,7.10
2018-03-29T20:36:12.411Z,7.20
2018-03-29T20:38:40.875Z,7.20
2018-03-29T20:41:09.746Z,7.20
2018-03-29T20:43:38.640Z,7.30
2018-03-29T20:46:07.150Z,7.30
2018-03-29T20:48:36.720Z,7.00
2018-03-29T20:51:05.358Z,7.00
2018-03-29T20:53:33.779Z,7.00
2018-03-29T20:56:02.347Z,7.00
2018-03-29T20:58:32.228Z,6.90
2018-03-29T21:01:00.692Z,6.90
2018-03-29T21:03:29.486Z,7.00
2018-03-29T21:05:57.894Z,7.00
2018-03-29T21:08:26.258Z,7.00
2018-03-29T21:10:54.651Z,7.00
2018-03-29T21:13:23.271Z,7.00
2018-03-29T21:15:52.905Z,6.90
2018-03-29T21:18:21.450Z,6.90
2018-03-29T21:20:52.417Z,6.80
2018-03-29T21:23:22.851Z,6.70
2018-03-29T21:25:52.518Z,6.70
2018-03-29T21:28:22.878Z,6.70
2018-03-29T21:30:53.849Z,6.70
2018-03-29T21:33:24.293Z,6.70
2018-03-29T21:35:54.572Z,6.80
2018-03-29T21:38:24.510Z,6.70
2018-03-29T21:40:53.897Z,6.70
2018-03-29T21:43:24.228Z,6.50
2018-03-29T21:45:52.758Z,6.50
2018-03-29T21:48:21.898Z,6.40
2018-03-29T21:50:50.319Z,6.40
2018-03-29T21:53:19.006Z,6.40
2018-03-29T21:55:47.398Z,6.40
2018-03-29T21:58:16.541Z,6.40
2018-03-29T22:00:45.127Z,6.40
2018-03-29T22:03:13.502Z,6.40
2018-03-29T22:05:41.956Z,6.40
2018-03-29T22:08:10.342Z,6.30
2018-03-29T22:10:38.718Z,6.30
2018-03-29T22:13:07.102Z,6.40
2018-03-29T22:15:35.535Z,6.40
2018-03-29T22:18:04.053Z,6.40
2018-03-29T22:20:32.434Z,6.40
2018-03-29T22:23:01.125Z,6.30
2018-03-29T22:25:29.568Z,6.20
2018-03-29T22:27:58.714Z,5.90
2018-03-29T22:30:27.121Z,5.90
2018-03-29T22:33:05.157Z,6.00
2018-03-29T22:35:34.289Z,6.10
2018-03-29T22:38:02.669Z,6.10
2018-03-29T22:40:34.118Z,6.20
2018-03-29T22:43:02.513Z,6.20
2018-03-29T22:45:30.909Z,6.20
2018-03-29T22:48:01.378Z,6.20
2018-03-29T22:50:29.791Z,6.20
2018-03-29T22:52:59.736Z,6.20
2018-03-29T22:55:29.831Z,6.10
2018-03-29T22:57:59.911Z,6.10
2018-03-29T23:00:38.049Z,6.10
2018-03-29T23:03:24.275Z,6.10
2018-03-29T23:06:05.662Z,6.00
2018-03-29T23:08:41.958Z,5.90
2018-03-29T23:11:19.530Z,5.90
2018-03-29T23:13:55.799Z,5.80
2018-03-29T23:16:35.174Z,5.80
2018-03-29T23:19:09.471Z,5.80
2018-03-29T23:21:38.811Z,5.80
2018-03-29T23:24:15.547Z,5.80
2018-03-29T23:26:55.003Z,5.80
2018-03-29T23:29:34.960Z,5.80
2018-03-29T23:44:43.011Z,5.60
2018-03-29T23:47:37.494Z,5.50
2018-03-29T23:50:28.578Z,5.50
2018-03-29T23:53:19.724Z,5.50
2018-03-29T23:56:12.805Z,5.40
2018-03-29T23:59:05.336Z,5.40
